Time;durP1;ratioP1;P1;durP2;ratioP2;P2;SDS_P1;SDS_P2;PMS_P1;PMS_P2;Temp;Humidity;BMP_temperature;BMP_pressure;BME280_temperature;BME280_humidity;BME280_pressure;Samples;Min_cycle;Max_cycle;Signal;HPM_P1;HPM_P2
2023/03/27 00:00:37;;;;;;;;;;;5.50;99.90;;;;;;2057931;28;20294;-72
2023/03/27 00:01:37;;;;;;;;;;;5.50;99.90;;;;;;2058463;28;19913;-72
2023/03/27 00:02:38;;;;;;;;;;;5.50;99.90;;;;;;2059870;28;20401;-72
2023/03/27 00:03:38;;;;;;;;;;;5.50;99.90;;;;;;2061122;28;19914;-73
2023/03/27 00:04:40;;;;;;;;;;;5.50;99.90;;;;;;2058553;28;19936;-72
2023/03/27 00:05:40;;;;;;;;;;;5.50;99.90;;;;;;2057645;28;20281;-72
2023/03/27 00:06:44;;;;;;;;;;;5.50;99.90;;;;;;2059196;28;19914;-72
2023/03/27 00:07:49;;;;;;;;;;;5.50;99.90;;;;;;2060343;28;19916;-73
2023/03/27 00:08:49;;;;;;;;;;;5.40;99.90;;;;;;2060247;28;19925;-73
2023/03/27 00:09:50;;;;;;;;;;;5.40;99.90;;;;;;2058416;28;20000;-72
2023/03/27 00:10:51;;;;;;;;;;;5.40;99.90;;;;;;2062197;28;19913;-72
2023/03/27 00:11:54;;;;;;;;;;;5.40;99.90;;;;;;2061868;28;20593;-72
2023/03/27 00:12:55;;;;;;;;;;;5.40;99.90;;;;;;2067759;28;20832;-72
2023/03/27 00:13:55;;;;;;;;;;;5.40;99.90;;;;;;2058784;28;19933;-72
2023/03/27 00:14:56;;;;;;;;;;;5.40;99.90;;;;;;2059488;28;19918;-73
2023/03/27 00:15:57;;;;;;;;;;;5.40;99.90;;;;;;2060863;28;19917;-72
2023/03/27 00:16:58;;;;;;;;;;;5.30;99.90;;;;;;2060746;28;19925;-73
2023/03/27 00:18:02;;;;;;;;;;;5.30;99.90;;;;;;2062719;28;19920;-72
2023/03/27 00:19:03;;;;;;;;;;;5.30;99.90;;;;;;2060305;28;19965;-72
2023/03/27 00:20:04;;;;;;;;;;;5.30;99.90;;;;;;2058666;28;19914;-72
2023/03/27 00:21:05;;;;;;;;;;;5.20;99.90;;;;;;2059431;28;19910;-72
2023/03/27 00:22:05;;;;;;;;;;;5.20;99.90;;;;;;2058279;28;19909;-72
2023/03/27 00:23:06;;;;;;;;;;;5.20;99.90;;;;;;2060219;28;19913;-73
2023/03/27 00:24:07;;;;;;;;;;;5.20;99.90;;;;;;2076838;28;20617;-72
2023/03/27 00:25:09;;;;;;;;;;;5.20;99.90;;;;;;2073632;28;19928;-72
2023/03/27 00:26:10;;;;;;;;;;;5.10;99.90;;;;;;2059831;28;20424;-73
2023/03/27 00:27:11;;;;;;;;;;;5.10;99.90;;;;;;2059895;28;20488;-72
2023/03/27 00:28:12;;;;;;;;;;;5.10;99.90;;;;;;2059259;28;20532;-73
2023/03/27 00:29:13;;;;;;;;;;;5.10;99.90;;;;;;2062415;28;20762;-72
2023/03/27 00:30:13;;;;;;;;;;;5.10;99.90;;;;;;2059265;28;20376;-72
2023/03/27 00:31:14;;;;;;;;;;;5.10;99.90;;;;;;2060676;28;19917;-72
2023/03/27 00:32:15;;;;;;;;;;;5.00;99.90;;;;;;2059131;28;20845;-73
2023/03/27 00:33:15;;;;;;;;;;;5.00;99.90;;;;;;2061258;28;20621;-72
2023/03/27 00:34:16;;;;;;;;;;;5.00;99.90;;;;;;2059023;28;19917;-72
2023/03/27 00:35:16;;;;;;;;;;;5.00;99.90;;;;;;2060098;28;20305;-72
2023/03/27 00:36:16;;;;;;;;;;;5.00;99.90;;;;;;2060404;28;19921;-72
2023/03/27 00:37:17;;;;;;;;;;;5.00;99.90;;;;;;2058449;28;20461;-72
2023/03/27 00:38:18;;;;;;;;;;;5.00;99.90;;;;;;2058633;28;19953;-72
2023/03/27 00:39:18;;;;;;;;;;;4.90;99.90;;;;;;2059374;28;19910;-72
2023/03/27 00:40:19;;;;;;;;;;;4.90;99.90;;;;;;2056649;28;19997;-72
2023/03/27 00:41:20;;;;;;;;;;;4.90;99.90;;;;;;2061135;28;19917;-72
2023/03/27 00:42:21;;;;;;;;;;;4.90;99.90;;;;;;2059178;28;19906;-73
2023/03/27 00:43:27;;;;;;;;;;;4.90;99.90;;;;;;2059328;28;19976;-72
2023/03/27 00:44:33;;;;;;;;;;;4.90;99.90;;;;;;2062140;28;20276;-73
2023/03/27 00:45:33;;;;;;;;;;;4.90;99.90;;;;;;2062232;28;19917;-72
2023/03/27 00:46:34;;;;;;;;;;;4.90;99.90;;;;;;2060937;28;19916;-73
2023/03/27 00:47:37;;;;;;;;;;;4.90;99.90;;;;;;2057652;28;20370;-72
2023/03/27 00:48:37;;;;;;;;;;;4.90;99.90;;;;;;2058243;28;19924;-72
2023/03/27 00:49:38;;;;;;;;;;;4.90;99.90;;;;;;2059771;28;20040;-72
2023/03/27 00:50:40;;;;;;;;;;;4.90;99.90;;;;;;2067369;28;19920;-72
2023/03/27 00:51:41;;;;;;;;;;;4.90;99.90;;;;;;2057300;28;20485;-73
2023/03/27 00:52:43;;;;;;;;;;;4.80;99.90;;;;;;2060611;28;20043;-73
2023/03/27 00:53:45;;;;;;;;;;;4.80;99.90;;;;;;2059585;28;19910;-72
2023/03/27 00:54:46;;;;;;;;;;;4.80;99.90;;;;;;2066212;28;19921;-73
2023/03/27 00:55:48;;;;;;;;;;;4.80;99.90;;;;;;2066826;28;19905;-72
2023/03/27 00:56:48;;;;;;;;;;;4.80;99.90;;;;;;2058397;28;20822;-72
2023/03/27 00:57:52;;;;;;;;;;;4.80;99.90;;;;;;2057602;28;20563;-72
2023/03/27 00:58:54;;;;;;;;;;;4.80;99.90;;;;;;2058260;28;19910;-72
2023/03/27 00:59:55;;;;;;;;;;;4.80;99.90;;;;;;2065047;28;20008;-73
2023/03/27 01:00:56;;;;;;;;;;;4.80;99.90;;;;;;2068591;28;19921;-72
2023/03/27 01:01:58;;;;;;;;;;;4.70;99.90;;;;;;2067509;28;19917;-72
2023/03/27 01:03:00;;;;;;;;;;;4.70;99.90;;;;;;2059034;28;19918;-72
2023/03/27 01:04:03;;;;;;;;;;;4.70;99.90;;;;;;2056920;28;19914;-72
2023/03/27 01:05:03;;;;;;;;;;;4.70;99.90;;;;;;2077056;28;19952;-72
2023/03/27 01:06:04;;;;;;;;;;;4.70;99.90;;;;;;2073699;28;19940;-72
2023/03/27 01:07:06;;;;;;;;;;;4.70;99.90;;;;;;2058437;28;19921;-72
2023/03/27 01:08:10;;;;;;;;;;;4.70;99.90;;;;;;2059629;28;20266;-73
2023/03/27 01:09:10;;;;;;;;;;;4.70;99.90;;;;;;2058071;28;19953;-72
2023/03/27 01:10:12;;;;;;;;;;;4.70;99.90;;;;;;2055893;28;19917;-72
2023/03/27 01:11:15;;;;;;;;;;;4.70;99.90;;;;;;2059364;28;19910;-72
2023/03/27 01:12:32;;;;;;;;;;;4.70;99.90;;;;;;2059086;28;19960;-72
2023/03/27 01:14:02;;;;;;;;;;;4.70;99.90;;;;;;2060444;28;19963;-72
2023/03/27 01:15:08;;;;;;;;;;;4.60;99.90;;;;;;2066264;28;20312;-72
2023/03/27 01:16:14;;;;;;;;;;;4.60;99.90;;;;;;2065964;28;19917;-72
2023/03/27 01:17:33;;;;;;;;;;;4.60;99.90;;;;;;2060766;28;20004;-72
2023/03/27 01:18:53;;;;;;;;;;;4.60;99.90;;;;;;2059608;28;19913;-72
2023/03/27 01:19:53;;;;;;;;;;;4.60;99.90;;;;;;2065218;28;19909;-72
2023/03/27 01:20:59;;;;;;;;;;;4.60;99.90;;;;;;2058150;28;19917;-72
2023/03/27 01:22:14;;;;;;;;;;;4.60;99.90;;;;;;2058269;28;19913;-72
2023/03/27 01:23:33;;;;;;;;;;;4.60;99.90;;;;;;2056826;28;19906;-72
2023/03/27 01:24:44;;;;;;;;;;;4.50;99.90;;;;;;2059313;28;19914;-72
2023/03/27 01:25:57;;;;;;;;;;;4.50;99.90;;;;;;2059210;28;20376;-72
2023/03/27 01:27:02;;;;;;;;;;;4.50;99.90;;;;;;2059142;28;19995;-72
2023/03/27 01:28:21;;;;;;;;;;;4.50;99.90;;;;;;2057764;28;20773;-72
2023/03/27 01:29:44;;;;;;;;;;;4.50;99.90;;;;;;2058300;28;19922;-72
2023/03/27 01:31:03;;;;;;;;;;;4.50;99.90;;;;;;2057982;28;19914;-72
2023/03/27 01:32:07;;;;;;;;;;;4.50;99.90;;;;;;2058614;28;20283;-72
2023/03/27 01:33:13;;;;;;;;;;;4.40;99.90;;;;;;2056362;28;19921;-72
2023/03/27 01:34:33;;;;;;;;;;;4.40;99.90;;;;;;2057668;28;19913;-72
2023/03/27 01:35:49;;;;;;;;;;;4.40;99.90;;;;;;2058624;28;19993;-72
2023/03/27 01:36:55;;;;;;;;;;;4.40;99.90;;;;;;2060223;28;19921;-73
2023/03/27 01:38:02;;;;;;;;;;;4.30;99.90;;;;;;2057374;28;19910;-72
2023/03/27 01:39:04;;;;;;;;;;;4.30;99.90;;;;;;2059212;28;20033;-72
2023/03/27 01:40:17;;;;;;;;;;;4.30;99.90;;;;;;2056678;28;19917;-72
2023/03/27 01:41:26;;;;;;;;;;;4.30;99.90;;;;;;2059061;28;20021;-72
2023/03/27 01:42:30;;;;;;;;;;;4.30;99.90;;;;;;2059862;28;21508;-72
2023/03/27 01:43:33;;;;;;;;;;;4.30;99.90;;;;;;2058636;28;19912;-72
2023/03/27 01:44:39;;;;;;;;;;;4.20;99.90;;;;;;2066571;28;19909;-72
2023/03/27 01:45:43;;;;;;;;;;;4.20;99.90;;;;;;2066398;28;19973;-72
2023/03/27 01:46:49;;;;;;;;;;;4.20;99.90;;;;;;2060368;28;19936;-72
2023/03/27 01:48:00;;;;;;;;;;;4.10;99.90;;;;;;2058157;28;19906;-72
2023/03/27 01:49:07;;;;;;;;;;;4.10;99.90;;;;;;2060821;28;19914;-72
2023/03/27 01:50:11;;;;;;;;;;;4.10;99.90;;;;;;2058095;28;19961;-72
2023/03/27 01:51:19;;;;;;;;;;;4.10;99.90;;;;;;2059606;28;19953;-72
2023/03/27 01:52:23;;;;;;;;;;;4.10;99.90;;;;;;2058518;28;19912;-72
2023/03/27 01:53:26;;;;;;;;;;;4.10;99.90;;;;;;2060471;28;19910;-72
2023/03/27 01:54:37;;;;;;;;;;;4.10;99.90;;;;;;2067014;28;20360;-72
2023/03/27 01:55:39;;;;;;;;;;;4.10;99.90;;;;;;2064533;28;19922;-72
2023/03/27 01:56:44;;;;;;;;;;;4.10;99.90;;;;;;2057141;28;19940;-72
2023/03/27 01:57:49;;;;;;;;;;;4.10;99.90;;;;;;2059664;28;19909;-72
2023/03/27 01:58:49;;;;;;;;;;;4.10;99.90;;;;;;2058105;28;19906;-72
2023/03/27 01:59:53;;;;;;;;;;;4.10;99.90;;;;;;2057903;28;19956;-72
2023/03/27 02:00:55;;;;;;;;;;;4.10;99.90;;;;;;2059231;28;20338;-72
2023/03/27 02:02:09;;;;;;;;;;;4.10;99.90;;;;;;2062088;28;20295;-72
2023/03/27 02:03:19;;;;;;;;;;;4.10;99.90;;;;;;2059857;28;20348;-72
2023/03/27 02:04:23;;;;;;;;;;;4.10;99.90;;;;;;2058062;28;19945;-72
2023/03/27 02:05:27;;;;;;;;;;;4.10;99.90;;;;;;2058344;28;19918;-72
2023/03/27 02:06:32;;;;;;;;;;;4.10;99.90;;;;;;2059625;28;19914;-72
2023/03/27 02:07:41;;;;;;;;;;;4.10;99.90;;;;;;2061218;28;19922;-72
2023/03/27 02:08:45;;;;;;;;;;;4.10;99.90;;;;;;2060514;28;19956;-72
2023/03/27 02:09:50;;;;;;;;;;;4.10;99.90;;;;;;2058436;28;19997;-72
2023/03/27 02:10:54;;;;;;;;;;;4.10;99.90;;;;;;2072541;28;20000;-73
2023/03/27 02:12:02;;;;;;;;;;;4.10;99.90;;;;;;2072104;28;19953;-72
2023/03/27 02:13:06;;;;;;;;;;;4.10;99.90;;;;;;2059794;28;19964;-72
2023/03/27 02:14:09;;;;;;;;;;;4.10;99.90;;;;;;2074074;28;19913;-72
2023/03/27 02:15:13;;;;;;;;;;;4.00;99.90;;;;;;2072862;28;19913;-72
2023/03/27 02:16:16;;;;;;;;;;;4.00;99.90;;;;;;2057321;28;19964;-72
2023/03/27 02:17:18;;;;;;;;;;;4.00;99.90;;;;;;2056717;28;20378;-72
2023/03/27 02:18:22;;;;;;;;;;;4.00;99.90;;;;;;2058733;28;20285;-72
2023/03/27 02:19:32;;;;;;;;;;;4.00;99.90;;;;;;2059730;28;20012;-72
2023/03/27 02:20:33;;;;;;;;;;;4.00;99.90;;;;;;2058936;28;19964;-72
2023/03/27 02:21:33;;;;;;;;;;;4.00;99.90;;;;;;2058859;28;19941;-72
2023/03/27 02:22:34;;;;;;;;;;;4.00;99.90;;;;;;2058718;28;20001;-72
2023/03/27 02:23:37;;;;;;;;;;;4.00;99.90;;;;;;2058520;28;20333;-72
2023/03/27 02:24:39;;;;;;;;;;;4.00;99.90;;;;;;2057227;28;20361;-72
2023/03/27 02:25:43;;;;;;;;;;;3.90;99.90;;;;;;2057632;28;19910;-72
2023/03/27 02:26:44;;;;;;;;;;;3.90;99.90;;;;;;2059023;28;20022;-72
2023/03/27 02:27:46;;;;;;;;;;;3.90;99.90;;;;;;2057178;28;20374;-72
2023/03/27 02:29:01;;;;;;;;;;;3.90;99.90;;;;;;2064435;28;19920;-72
2023/03/27 02:30:12;;;;;;;;;;;3.90;99.90;;;;;;2062974;28;19914;-72
2023/03/27 02:31:22;;;;;;;;;;;3.90;99.90;;;;;;2056497;28;19910;-72
2023/03/27 02:32:27;;;;;;;;;;;3.80;99.90;;;;;;2059006;28;19910;-72
2023/03/27 02:33:46;;;;;;;;;;;3.80;99.90;;;;;;2057974;28;19924;-72
2023/03/27 02:34:48;;;;;;;;;;;3.90;99.90;;;;;;2058143;28;20440;-72
2023/03/27 02:36:07;;;;;;;;;;;3.80;99.90;;;;;;2057327;28;20461;-72
2023/03/27 02:37:40;;;;;;;;;;;3.80;99.90;;;;;;2057691;28;19924;-72
2023/03/27 02:38:40;;;;;;;;;;;3.80;99.90;;;;;;2059994;28;19910;-72
2023/03/27 02:39:44;;;;;;;;;;;3.90;99.90;;;;;;2059078;28;20399;-72
2023/03/27 02:40:59;;;;;;;;;;;3.80;99.90;;;;;;2074170;28;19913;-72
2023/03/27 02:42:05;;;;;;;;;;;3.80;99.90;;;;;;2069806;28;19964;-72
2023/03/27 02:43:11;;;;;;;;;;;3.80;99.90;;;;;;2059603;28;19920;-72
2023/03/27 02:44:14;;;;;;;;;;;3.80;99.90;;;;;;2058250;28;19910;-72
2023/03/27 02:45:19;;;;;;;;;;;3.80;99.90;;;;;;2060722;28;19925;-72
2023/03/27 02:46:27;;;;;;;;;;;3.80;99.90;;;;;;2076867;28;19906;-72
2023/03/27 02:48:00;;;;;;;;;;;3.90;99.90;;;;;;2074416;28;19921;-72
2023/03/27 02:49:03;;;;;;;;;;;3.80;99.90;;;;;;2056520;28;19910;-72
2023/03/27 02:50:04;;;;;;;;;;;3.90;99.90;;;;;;2059441;28;19909;-72
2023/03/27 02:51:07;;;;;;;;;;;3.80;99.90;;;;;;2059889;28;20385;-72
2023/03/27 02:52:27;;;;;;;;;;;3.80;99.90;;;;;;2059975;28;19929;-72
2023/03/27 02:53:29;;;;;;;;;;;3.80;99.90;;;;;;2061201;28;20103;-72
2023/03/27 02:54:32;;;;;;;;;;;3.80;99.90;;;;;;2060252;28;19910;-72
2023/03/27 02:55:35;;;;;;;;;;;3.80;99.90;;;;;;2059902;28;19912;-72
2023/03/27 02:56:38;;;;;;;;;;;3.80;99.90;;;;;;2066907;28;19915;-72
2023/03/27 02:57:38;;;;;;;;;;;3.80;99.90;;;;;;2066305;28;19920;-72
2023/03/27 02:58:56;;;;;;;;;;;3.70;99.90;;;;;;2059248;28;19916;-72
2023/03/27 02:59:59;;;;;;;;;;;3.70;99.90;;;;;;2058697;28;20484;-72
2023/03/27 03:01:00;;;;;;;;;;;3.70;99.90;;;;;;2059386;28;20282;-72
2023/03/27 03:02:07;;;;;;;;;;;3.70;99.90;;;;;;2058997;28;19910;-72
2023/03/27 03:03:26;;;;;;;;;;;3.70;99.90;;;;;;2060462;28;19914;-72
2023/03/27 03:04:34;;;;;;;;;;;3.70;99.90;;;;;;2059773;28;19953;-72
2023/03/27 03:05:37;;;;;;;;;;;3.70;99.90;;;;;;2060924;28;19917;-72
2023/03/27 03:06:41;;;;;;;;;;;3.70;99.90;;;;;;2060033;28;20008;-72
2023/03/27 03:07:41;;;;;;;;;;;3.70;99.90;;;;;;2060254;28;19910;-72
2023/03/27 03:08:45;;;;;;;;;;;3.70;99.90;;;;;;2059389;28;19968;-72
2023/03/27 03:09:45;;;;;;;;;;;3.70;99.90;;;;;;2058786;28;19945;-72
2023/03/27 03:10:46;;;;;;;;;;;3.70;99.90;;;;;;2058264;28;19906;-72
2023/03/27 03:11:49;;;;;;;;;;;3.70;99.90;;;;;;2059555;28;19917;-72
2023/03/27 03:12:49;;;;;;;;;;;3.70;99.90;;;;;;2073587;28;20741;-72
2023/03/27 03:13:50;;;;;;;;;;;3.60;99.90;;;;;;2075322;28;19909;-72
2023/03/27 03:14:50;;;;;;;;;;;3.60;99.90;;;;;;2060670;28;20419;-72
2023/03/27 03:15:51;;;;;;;;;;;3.60;99.90;;;;;;2058032;28;19906;-72
2023/03/27 03:16:51;;;;;;;;;;;3.60;99.90;;;;;;2060638;28;20016;-72
2023/03/27 03:17:52;;;;;;;;;;;3.60;99.90;;;;;;2060382;28;20726;-72
2023/03/27 03:18:52;;;;;;;;;;;3.60;99.90;;;;;;2058706;28;19914;-72
2023/03/27 03:19:53;;;;;;;;;;;3.60;99.90;;;;;;2060292;28;19917;-72
2023/03/27 03:20:54;;;;;;;;;;;3.60;99.90;;;;;;2059938;28;20850;-72
2023/03/27 03:21:55;;;;;;;;;;;3.60;99.90;;;;;;2059152;28;19949;-72
2023/03/27 03:22:56;;;;;;;;;;;3.60;99.90;;;;;;2060033;28;19914;-72
2023/03/27 03:23:56;;;;;;;;;;;3.50;99.90;;;;;;2058360;28;20358;-72
2023/03/27 03:24:57;;;;;;;;;;;3.60;99.90;;;;;;2057757;28;19918;-72
2023/03/27 03:25:57;;;;;;;;;;;3.60;99.90;;;;;;2065777;28;19914;-72
2023/03/27 03:26:58;;;;;;;;;;;3.50;99.90;;;;;;2065444;28;19952;-72
2023/03/27 03:28:00;;;;;;;;;;;3.50;99.90;;;;;;2058651;28;19914;-72
2023/03/27 03:29:00;;;;;;;;;;;3.50;99.90;;;;;;2060297;28;19921;-72
2023/03/27 03:30:03;;;;;;;;;;;3.50;99.90;;;;;;2058295;28;20012;-72
2023/03/27 03:31:04;;;;;;;;;;;3.50;99.90;;;;;;2060986;28;20374;-72
2023/03/27 03:32:05;;;;;;;;;;;3.50;99.90;;;;;;2059609;28;19993;-72
2023/03/27 03:33:05;;;;;;;;;;;3.40;99.90;;;;;;2067067;28;20023;-72
2023/03/27 03:34:06;;;;;;;;;;;3.50;99.90;;;;;;2068570;28;19952;-72
2023/03/27 03:35:08;;;;;;;;;;;3.50;99.90;;;;;;2073763;28;19905;-72
2023/03/27 03:36:09;;;;;;;;;;;3.50;99.90;;;;;;2075704;28;19920;-72
2023/03/27 03:37:10;;;;;;;;;;;3.40;99.90;;;;;;2061138;28;19910;-72
2023/03/27 03:38:10;;;;;;;;;;;3.40;99.90;;;;;;2059990;28;19918;-72
2023/03/27 03:39:14;;;;;;;;;;;3.40;99.90;;;;;;2059213;28;20077;-72
2023/03/27 03:40:15;;;;;;;;;;;3.40;99.90;;;;;;2060476;28;20305;-72
2023/03/27 03:41:16;;;;;;;;;;;3.40;99.90;;;;;;2059496;28;20384;-72
2023/03/27 03:42:16;;;;;;;;;;;3.30;99.90;;;;;;2061367;28;20281;-72
2023/03/27 03:43:17;;;;;;;;;;;3.30;99.90;;;;;;2059516;28;19913;-72
2023/03/27 03:44:17;;;;;;;;;;;3.30;99.90;;;;;;2060372;28;20589;-72
2023/03/27 03:45:18;;;;;;;;;;;3.30;99.90;;;;;;2059321;28;20720;-72
2023/03/27 03:46:18;;;;;;;;;;;3.30;99.90;;;;;;2060198;28;19960;-72
2023/03/27 03:47:19;;;;;;;;;;;3.30;99.90;;;;;;2059092;28;19993;-72
2023/03/27 03:48:20;;;;;;;;;;;3.30;99.90;;;;;;2059046;28;20361;-72
2023/03/27 03:49:20;;;;;;;;;;;3.20;99.90;;;;;;2058169;28;19913;-72
2023/03/27 03:50:21;;;;;;;;;;;3.30;99.90;;;;;;2058245;28;19914;-72
2023/03/27 03:51:21;;;;;;;;;;;3.20;99.90;;;;;;2066530;28;19913;-72
2023/03/27 03:52:23;;;;;;;;;;;3.20;99.90;;;;;;2068651;28;19983;-72
2023/03/27 03:53:23;;;;;;;;;;;3.20;99.90;;;;;;2060496;28;19964;-72
2023/03/27 03:54:24;;;;;;;;;;;3.20;99.90;;;;;;2058134;28;20472;-72
2023/03/27 03:55:24;;;;;;;;;;;3.20;99.90;;;;;;2060126;28;19949;-72
2023/03/27 03:56:26;;;;;;;;;;;3.20;99.90;;;;;;2058203;28;19920;-72
2023/03/27 03:57:27;;;;;;;;;;;3.20;99.90;;;;;;2058763;28;20278;-72
2023/03/27 03:58:27;;;;;;;;;;;3.20;99.90;;;;;;2075402;28;20019;-72
2023/03/27 03:59:28;;;;;;;;;;;3.20;99.90;;;;;;2073026;28;19992;-72
2023/03/27 04:00:30;;;;;;;;;;;3.20;99.90;;;;;;2058908;28;19914;-72
2023/03/27 04:01:31;;;;;;;;;;;3.10;99.90;;;;;;2068308;28;19959;-72
2023/03/27 04:02:32;;;;;;;;;;;3.10;99.90;;;;;;2065503;28;19913;-72
2023/03/27 04:03:33;;;;;;;;;;;3.10;99.90;;;;;;2060383;28;19961;-72
2023/03/27 04:04:33;;;;;;;;;;;3.10;99.90;;;;;;2059869;28;19909;-72
2023/03/27 04:05:35;;;;;;;;;;;3.10;99.90;;;;;;2058915;28;19972;-72
2023/03/27 04:06:36;;;;;;;;;;;3.10;99.90;;;;;;2060953;28;20370;-72
2023/03/27 04:07:38;;;;;;;;;;;3.10;99.90;;;;;;2060415;28;19965;-72
2023/03/27 04:08:39;;;;;;;;;;;3.10;99.90;;;;;;2058502;28;19917;-72
2023/03/27 04:09:39;;;;;;;;;;;3.00;99.90;;;;;;2059118;28;19945;-72
2023/03/27 04:10:40;;;;;;;;;;;3.10;99.90;;;;;;2065364;28;20003;-72
2023/03/27 04:11:40;;;;;;;;;;;3.10;99.90;;;;;;2065905;28;19906;-72
2023/03/27 04:12:50;;;;;;;;;;;3.10;99.90;;;;;;2060819;28;19997;-72
2023/03/27 04:13:50;;;;;;;;;;;3.00;99.90;;;;;;2075121;28;19905;-72
2023/03/27 04:14:51;;;;;;;;;;;3.00;99.90;;;;;;2074539;28;19944;-72
2023/03/27 04:15:52;;;;;;;;;;;3.00;99.90;;;;;;2058317;28;19933;-72
2023/03/27 04:16:53;;;;;;;;;;;3.00;99.90;;;;;;2059275;28;20337;-72
2023/03/27 04:17:53;;;;;;;;;;;3.00;99.90;;;;;;2058490;28;20698;-72
2023/03/27 04:18:54;;;;;;;;;;;3.00;99.90;;;;;;2059024;28;19965;-72
2023/03/27 04:19:54;;;;;;;;;;;3.00;99.90;;;;;;2059923;28;21188;-72
2023/03/27 04:20:57;;;;;;;;;;;3.00;99.90;;;;;;2058039;28;20331;-72
2023/03/27 04:22:01;;;;;;;;;;;3.00;99.90;;;;;;2060438;28;20417;-72
2023/03/27 04:23:02;;;;;;;;;;;3.00;99.90;;;;;;2061858;28;19913;-72
2023/03/27 04:24:02;;;;;;;;;;;3.00;99.90;;;;;;2057977;28;20017;-72
2023/03/27 04:25:04;;;;;;;;;;;3.00;99.90;;;;;;2056227;28;19927;-72
2023/03/27 04:26:04;;;;;;;;;;;3.00;99.90;;;;;;2058775;28;19985;-72
2023/03/27 04:27:05;;;;;;;;;;;2.90;99.90;;;;;;2059488;28;19909;-72
2023/03/27 04:28:05;;;;;;;;;;;2.90;99.90;;;;;;2058989;28;19913;-72
2023/03/27 04:29:09;;;;;;;;;;;2.90;99.90;;;;;;2058444;28;19914;-72
2023/03/27 04:30:12;;;;;;;;;;;3.00;99.90;;;;;;2058237;28;19913;-72
2023/03/27 04:31:13;;;;;;;;;;;2.90;99.90;;;;;;2059446;28;19914;-72
2023/03/27 04:32:17;;;;;;;;;;;2.90;99.90;;;;;;2059524;28;19948;-72
2023/03/27 04:33:18;;;;;;;;;;;2.90;99.90;;;;;;2060095;28;20326;-72
2023/03/27 04:34:19;;;;;;;;;;;2.90;99.90;;;;;;2058273;28;19916;-72
2023/03/27 04:35:20;;;;;;;;;;;2.90;99.90;;;;;;2061945;28;19935;-72
2023/03/27 04:36:21;;;;;;;;;;;2.90;99.90;;;;;;2061349;28;20524;-72
2023/03/27 04:37:22;;;;;;;;;;;2.90;99.90;;;;;;2066274;28;19916;-72
2023/03/27 04:38:25;;;;;;;;;;;2.90;99.90;;;;;;2067573;28;19924;-72
2023/03/27 04:39:25;;;;;;;;;;;2.90;99.90;;;;;;2058514;28;20004;-72
2023/03/27 04:40:25;;;;;;;;;;;2.90;99.90;;;;;;2057888;28;19913;-72
2023/03/27 04:41:28;;;;;;;;;;;2.90;99.90;;;;;;2058766;28;19906;-72
2023/03/27 04:42:28;;;;;;;;;;;2.90;99.90;;;;;;2058842;28;19955;-72
2023/03/27 04:43:29;;;;;;;;;;;2.90;99.90;;;;;;2057950;28;21710;-72
2023/03/27 04:44:30;;;;;;;;;;;2.90;99.90;;;;;;2057116;28;19957;-72
2023/03/27 04:45:31;;;;;;;;;;;2.90;99.90;;;;;;2058501;28;20032;-72
2023/03/27 04:46:31;;;;;;;;;;;2.90;99.90;;;;;;2058747;28;19913;-72
2023/03/27 04:47:36;;;;;;;;;;;2.90;99.90;;;;;;2059093;28;19993;-72
2023/03/27 04:48:37;;;;;;;;;;;2.90;99.90;;;;;;2059796;28;19910;-72
2023/03/27 04:49:38;;;;;;;;;;;2.90;99.90;;;;;;2057512;28;20382;-72
2023/03/27 04:50:39;;;;;;;;;;;2.90;99.90;;;;;;2058300;28;20001;-72
2023/03/27 04:51:40;;;;;;;;;;;2.90;99.90;;;;;;2058675;28;19914;-72
2023/03/27 04:52:41;;;;;;;;;;;2.90;99.90;;;;;;2059598;28;19917;-72
2023/03/27 04:53:41;;;;;;;;;;;2.90;99.90;;;;;;2059727;28;19910;-72
2023/03/27 04:54:43;;;;;;;;;;;2.90;99.90;;;;;;2056871;28;19926;-72
2023/03/27 04:55:44;;;;;;;;;;;2.90;99.90;;;;;;2057775;28;19953;-72
2023/03/27 04:56:45;;;;;;;;;;;2.90;99.90;;;;;;2060510;28;19914;-72
2023/03/27 04:57:46;;;;;;;;;;;2.90;99.90;;;;;;2057974;28;19906;-72
2023/03/27 04:58:47;;;;;;;;;;;3.00;99.90;;;;;;2059982;28;19909;-72
2023/03/27 04:59:47;;;;;;;;;;;2.90;99.90;;;;;;2057926;28;19921;-72
2023/03/27 05:00:49;;;;;;;;;;;2.90;99.90;;;;;;2059117;28;19914;-72
2023/03/27 05:01:50;;;;;;;;;;;3.00;99.90;;;;;;2060237;28;20005;-72
2023/03/27 05:02:51;;;;;;;;;;;3.00;99.90;;;;;;2058890;28;19910;-72
2023/03/27 05:03:52;;;;;;;;;;;3.00;99.90;;;;;;2058960;28;19917;-72
2023/03/27 05:04:57;;;;;;;;;;;2.90;99.90;;;;;;2059794;28;19921;-72
2023/03/27 05:05:58;;;;;;;;;;;2.90;99.90;;;;;;2056385;28;19925;-72
2023/03/27 05:06:58;;;;;;;;;;;2.90;99.90;;;;;;2057851;28;19953;-72
2023/03/27 05:07:59;;;;;;;;;;;3.00;99.90;;;;;;2057576;28;20041;-72
2023/03/27 05:08:59;;;;;;;;;;;2.90;99.90;;;;;;2057945;28;19914;-72
2023/03/27 05:10:01;;;;;;;;;;;3.00;99.90;;;;;;2060029;28;20056;-72
2023/03/27 05:11:01;;;;;;;;;;;2.90;99.90;;;;;;2057207;28;19913;-72
2023/03/27 05:12:02;;;;;;;;;;;3.00;99.90;;;;;;2056622;28;19941;-72
2023/03/27 05:13:02;;;;;;;;;;;3.00;99.90;;;;;;2060703;28;19913;-72
2023/03/27 05:14:03;;;;;;;;;;;3.00;99.90;;;;;;2058573;28;19916;-72
2023/03/27 05:15:05;;;;;;;;;;;3.00;99.90;;;;;;2058304;28;20114;-72
2023/03/27 05:16:08;;;;;;;;;;;3.00;99.90;;;;;;2059045;28;19905;-72
2023/03/27 05:17:08;;;;;;;;;;;3.00;99.90;;;;;;2058920;28;20001;-72
2023/03/27 05:18:09;;;;;;;;;;;3.00;99.90;;;;;;2076674;28;20765;-72
2023/03/27 05:19:10;;;;;;;;;;;3.00;99.90;;;;;;2074140;28;20751;-72
2023/03/27 05:20:13;;;;;;;;;;;3.00;99.90;;;;;;2057690;28;19945;-72
2023/03/27 05:21:13;;;;;;;;;;;3.00;99.90;;;;;;2068133;28;20373;-72
2023/03/27 05:22:14;;;;;;;;;;;3.00;99.90;;;;;;2065748;28;20307;-72
2023/03/27 05:23:15;;;;;;;;;;;3.00;99.90;;;;;;2060714;28;19920;-72
2023/03/27 05:24:15;;;;;;;;;;;3.00;99.90;;;;;;2059357;28;19929;-72
2023/03/27 05:25:16;;;;;;;;;;;3.00;99.90;;;;;;2058325;28;19914;-72
2023/03/27 05:26:17;;;;;;;;;;;3.00;99.90;;;;;;2059959;28;20523;-72
2023/03/27 05:27:18;;;;;;;;;;;3.00;99.90;;;;;;2059431;28;20333;-72
2023/03/27 05:28:18;;;;;;;;;;;3.00;99.90;;;;;;2075589;28;20215;-72
2023/03/27 05:29:19;;;;;;;;;;;3.00;99.90;;;;;;2068233;28;19912;-72
2023/03/27 05:30:21;;;;;;;;;;;3.00;99.90;;;;;;2060447;28;19976;-72
2023/03/27 05:31:21;;;;;;;;;;;3.10;99.90;;;;;;2065410;28;19917;-72
2023/03/27 05:32:22;;;;;;;;;;;3.10;99.90;;;;;;2065947;28;19918;-72
2023/03/27 05:33:22;;;;;;;;;;;3.10;99.90;;;;;;2058676;28;20365;-72
2023/03/27 05:34:23;;;;;;;;;;;3.10;99.90;;;;;;2059384;28;19917;-72
2023/03/27 05:35:24;;;;;;;;;;;3.10;99.90;;;;;;2057961;28;19910;-72
2023/03/27 05:36:27;;;;;;;;;;;3.10;99.90;;;;;;2059933;28;20673;-72
2023/03/27 05:37:28;;;;;;;;;;;3.10;99.90;;;;;;2059081;28;19918;-72
2023/03/27 05:38:28;;;;;;;;;;;3.10;99.90;;;;;;2059063;28;19906;-72
2023/03/27 05:39:29;;;;;;;;;;;3.10;99.90;;;;;;2058177;28;19921;-72
2023/03/27 05:40:30;;;;;;;;;;;3.10;99.90;;;;;;2058536;28;19906;-72
2023/03/27 05:41:30;;;;;;;;;;;3.10;99.90;;;;;;2058504;28;19909;-72
2023/03/27 05:42:31;;;;;;;;;;;3.10;99.90;;;;;;2059101;28;19910;-72
2023/03/27 05:43:31;;;;;;;;;;;3.10;99.90;;;;;;2060283;28;19988;-72
2023/03/27 05:44:32;;;;;;;;;;;3.10;99.90;;;;;;2058948;28;19997;-72
2023/03/27 05:45:32;;;;;;;;;;;3.20;99.90;;;;;;2057412;28;20442;-72
2023/03/27 05:46:33;;;;;;;;;;;3.20;99.90;;;;;;2058115;28;19910;-72
2023/03/27 05:47:41;;;;;;;;;;;3.20;99.90;;;;;;2058710;28;19910;-72
2023/03/27 05:48:41;;;;;;;;;;;3.20;99.90;;;;;;2059338;28;19917;-72
2023/03/27 05:49:42;;;;;;;;;;;3.20;99.90;;;;;;2058180;28;19910;-72
2023/03/27 05:50:43;;;;;;;;;;;3.20;99.90;;;;;;2059041;28;19920;-72
2023/03/27 05:51:44;;;;;;;;;;;3.20;99.90;;;;;;2060256;28;19925;-72
2023/03/27 05:52:45;;;;;;;;;;;3.20;99.90;;;;;;2057178;28;20725;-72
2023/03/27 05:53:45;;;;;;;;;;;3.20;99.90;;;;;;2059332;28;19914;-72
2023/03/27 05:54:46;;;;;;;;;;;3.30;99.90;;;;;;2057574;28;19913;-72
2023/03/27 05:55:46;;;;;;;;;;;3.20;99.90;;;;;;2058498;28;20366;-72
2023/03/27 05:56:47;;;;;;;;;;;3.20;99.90;;;;;;2060421;28;19921;-72
2023/03/27 05:57:47;;;;;;;;;;;3.20;99.90;;;;;;2057609;28;19918;-72
2023/03/27 05:58:47;;;;;;;;;;;3.30;99.90;;;;;;2057685;28;19910;-72
2023/03/27 05:59:48;;;;;;;;;;;3.30;99.90;;;;;;2059302;28;19910;-72
2023/03/27 06:00:49;;;;;;;;;;;3.30;99.90;;;;;;2073652;28;20504;-72
2023/03/27 06:01:49;;;;;;;;;;;3.30;99.90;;;;;;2065610;28;19914;-72
2023/03/27 06:02:52;;;;;;;;;;;3.30;99.90;;;;;;2056383;28;20445;-72
2023/03/27 06:03:54;;;;;;;;;;;3.40;99.90;;;;;;2058644;28;20030;-72
2023/03/27 06:04:55;;;;;;;;;;;3.40;99.90;;;;;;2062504;28;19909;-72
2023/03/27 06:05:58;;;;;;;;;;;3.40;99.90;;;;;;2060814;28;20032;-72
2023/03/27 06:07:01;;;;;;;;;;;3.40;99.90;;;;;;2065167;28;19909;-72
2023/03/27 06:08:01;;;;;;;;;;;3.40;99.90;;;;;;2058104;28;19965;-72
2023/03/27 06:09:02;;;;;;;;;;;3.40;99.90;;;;;;2059572;28;19941;-72
2023/03/27 06:10:04;;;;;;;;;;;3.50;99.90;;;;;;2057863;28;19937;-72
2023/03/27 06:11:11;;;;;;;;;;;3.50;99.90;;;;;;2059054;28;19916;-72
2023/03/27 06:12:11;;;;;;;;;;;3.50;99.90;;;;;;2058406;28;19957;-72
2023/03/27 06:13:13;;;;;;;;;;;3.50;99.90;;;;;;2059819;28;19910;-72